Latest Coastal Weather Observations for Frederick Reef

IDQ60701

Issued at 12:22 am EST Thursday 11 August 2022 (issued every 10 minutes, with the page automatically refreshed every 10 minutes)

About coastal observations | Map of coastal stations | Coastal observations for QLD | Marine services | Other Formats
Station Details ID: 200701 Name: FREDERICK REEF Lat: -20.94 Lon: 154.40 Height: 4.9 m
Data from the previous 72 hours. | See also: Recent months at Frederick Reef
Date/Time
EST
Wind Sea
Height
m
Swell Vis
km
Cloud Weather Temp
°C
Press
MSL
hPa
Rain since
9am
mm
Dir  Spd
kts
Gust
kts
Height
m
Period
s
Dir
11/12:00am ESE 22 25 - - - - - - - 20.9 1020.2 -
 
Date/Time
EST
Wind Sea
Height
m
Swell Vis
km
Cloud Weather Temp
°C
Press
MSL
hPa
Rain since
9am
mm
Dir  Spd
kts
Gust
kts
Height
m
Period
s
Dir
10/11:30pm SE 21 24 - - - - - - - 21.1 1020.3 -
10/11:00pm ESE 22 27 - - - - - - - 20.5 1020.4 -
10/10:30pm SE 21 24 - - - - - - - 21.1 1020.6 -
10/10:00pm SE 22 26 - - - - - - - 21.1 1020.6 -
10/09:30pm SE 21 25 - - - - - - - 21.0 1020.5 -
10/09:00pm SE 21 27 - - - - - - - 21.2 1020.6 -
10/08:30pm SSE 21 26 - - - - - - - 21.2 1020.4 -
10/08:00pm SSE 23 27 - - - - - - - 20.9 1020.2 -
10/07:30pm SSE 23 26 - - - - - - - 21.0 1020.1 -
10/07:00pm SSE 21 25 - - - - - - - 20.9 1019.9 -
10/06:30pm SSE 22 26 - - - - - - - 20.9 1019.7 -
10/06:00pm SSE 21 25 - - - - - - - 21.0 1019.5 -
10/05:30pm SSE 22 24 - - - - - - - 20.9 1019.3 -
10/05:00pm SSE 22 26 - - - - - - - 20.9 1019.1 -
10/04:30pm SSE 21 25 - - - - - - - 20.9 1019.1 -
10/04:00pm SSE 23 26 - - - - - - - 21.0 1018.8 -
10/03:30pm SSE 22 26 - - - - - - - 21.1 1018.8 -
10/03:00pm SSE 23 26 - - - - - - - 20.9 1018.6 -
10/02:30pm SSE 21 24 - - - - - - - 20.9 1018.8 -
10/02:00pm SSE 20 26 - - - - - - - 21.1 1018.7 -
10/01:30pm SSE 19 22 - - - - - - - 21.2 1019.0 -
10/01:00pm SSE 18 23 - - - - - - - 21.0 1019.2 -
10/12:30pm SSE 19 23 - - - - - - - 21.2 1019.3 -
10/12:00pm SSE 19 22 - - - - - - - 21.1 1019.6 -
10/11:30am SSE 20 25 - - - - - - - 21.1 1019.8 -
10/11:00am SSE 22 25 - - - - - - - 21.0 1020.2 -
10/10:30am SSE 21 25 - - - - - - - 21.0 1020.4 -
10/10:00am SSE 21 25 - - - - - - - 21.0 1020.5 -
10/09:30am SSE 21 26 - - - - - - - 20.9 1020.4 -
10/09:00am SSE 21 24 - - - - - - - 21.0 1020.4 -
10/08:30am SSE 22 25 - - - - - - - 21.0 1020.2 -
10/08:00am SSE 21 24 - - - - - - - 21.1 1019.7 -
10/07:30am SSE 23 26 - - - - - - - 21.0 1019.6 -
10/07:00am SSE 23 26 - - - - - - - 21.0 1019.3 -
10/06:30am SSE 23 26 - - - - - - - 20.8 1018.9 -
10/06:00am SSE 22 25 - - - - - - - 20.9 1018.6 -
10/05:30am SSE 22 25 - - - - - - - 20.8 1018.3 -
10/05:00am SSE 21 23 - - - - - - - 20.8 1018.0 -
10/04:30am SSE 20 24 - - - - - - - 20.8 1017.7 -
10/04:00am SSE 20 24 - - - - - - - 20.9 1017.5 -
10/03:30am SSE 20 23 - - - - - - - 20.9 1017.4 -
10/03:00am SSE 21 24 - - - - - - - 20.9 1017.4 -
10/02:30am SSE 22 27 - - - - - - - 20.8 1017.5 -
10/02:00am SE 19 22 - - - - - - - 21.0 1017.7 -
10/01:30am SSE 18 22 - - - - - - - 21.2 1017.8 -
10/01:00am SSE 16 19 - - - - - - - 21.0 1018.0 -
10/12:30am SSE 16 19 - - - - - - - 20.7 1018.2 -
10/12:00am SSE 18 21 - - - - - - - 21.1 1018.5 -
 
Date/Time
EST
Wind Sea
Height
m
Swell Vis
km
Cloud Weather Temp
°C
Press
MSL
hPa
Rain since
9am
mm
Dir  Spd
kts
Gust
kts
Height
m
Period
s
Dir
09/11:30pm SE 18 21 - - - - - - - 21.1 1018.6 -
09/11:00pm SSE 18 21 - - - - - - - 21.1 1018.7 -
09/10:30pm SSE 20 24 - - - - - - - 21.0 1018.8 -
09/10:00pm SSE 21 25 - - - - - - - 21.2 1018.7 -
09/09:30pm SSE 21 23 - - - - - - - 21.2 1018.6 -
09/09:00pm SSE 20 23 - - - - - - - 21.2 1018.5 -
09/08:30pm SSE 19 27 - - - - - - - 21.0 1018.5 -
09/08:00pm SSE 19 22 - - - - - - - 21.3 1018.3 -
09/07:30pm SSE 19 22 - - - - - - - 21.3 1017.9 -
09/07:00pm SSE 19 23 - - - - - - - 21.3 1017.6 -
09/06:30pm SSE 20 22 - - - - - - - 21.2 1017.2 -
09/06:00pm SSE 19 25 - - - - - - - 21.1 1016.7 -
09/05:30pm SSE 19 23 - - - - - - - 21.2 1016.4 -
09/05:00pm SSE 20 23 - - - - - - - 21.1 1015.9 -
09/04:30pm SSE 19 24 - - - - - - - 21.3 1015.5 -
09/04:00pm SSE 20 23 - - - - - - - 21.2 1015.3 -
09/03:30pm SSE 20 23 - - - - - - - 21.2 1015.1 -
09/03:00pm SSE 22 25 - - - - - - - 21.2 1015.0 -
09/02:30pm SSE 21 23 - - - - - - - 21.2 1015.1 -
09/02:00pm SSE 22 25 - - - - - - - 21.1 1015.3 -
09/01:30pm SSE 20 23 - - - - - - - 21.1 1015.6 -
09/01:00pm SSE 20 22 - - - - - - - 20.7 1015.9 -
09/12:30pm SSE 19 22 - - - - - - - 21.1 1016.1 -
09/12:00pm SSE 19 23 - - - - - - - 20.7 1016.5 -
09/11:30am SSE 19 23 - - - - - - - 20.8 1016.8 -
09/11:00am SSE 16 19 - - - - - - - 21.1 1017.1 -
09/10:30am SSE 16 19 - - - - - - - 20.8 1017.2 -
09/10:00am SSE 17 20 - - - - - - - 20.8 1017.5 -
09/09:30am SSE 14 19 - - - - - - - 21.0 1017.7 -
09/09:00am S 14 18 - - - - - - - 20.8 1017.8 -
09/08:30am SSE 16 18 - - - - - - - 20.6 1017.8 -
09/08:00am SSE 15 17 - - - - - - - 20.9 1017.7 -
09/07:30am SSE 15 19 - - - - - - - 20.7 1017.5 -
09/07:00am SSE 15 17 - - - - - - - 20.5 1017.3 -
09/06:30am SSE 14 17 - - - - - - - 20.7 1016.9 -
09/06:00am SE 13 17 - - - - - - - 20.5 1016.8 -
09/05:30am SSE 12 15 - - - - - - - 20.3 1016.6 -
09/05:00am SSE 13 18 - - - - - - - 20.2 1016.3 -
09/04:30am SSE 13 16 - - - - - - - 20.2 1016.1 -
09/04:00am SSE 9 13 - - - - - - - 20.0 1016.0 -
09/03:30am SSE 12 17 - - - - - - - 19.9 1016.2 -
09/03:00am SSE 13 16 - - - - - - - 19.8 1016.4 -
09/02:30am S 13 16 - - - - - - - 19.9 1016.7 -
09/02:00am SSE 12 16 - - - - - - - 19.9 1016.9 -
09/01:30am S 16 19 - - - - - - - 19.9 1017.1 -
09/01:00am S 14 21 - - - - - - - 20.2 1017.2 -
09/12:30am S 17 21 - - - - - - - 19.9 1017.3 -
09/12:00am S 13 17 - - - - - - - 19.9 1017.7 -
 
Date/Time
EST
Wind Sea
Height
m
Swell Vis
km
Cloud Weather Temp
°C
Press
MSL
hPa
Rain since
9am
mm
Dir  Spd
kts
Gust
kts
Height
m
Period
s
Dir
08/11:30pm S 14 19 - - - - - - - 20.0 1017.7 -
08/11:00pm S 13 17 - - - - - - - 19.9 1017.7 -
08/10:30pm S 15 19 - - - - - - - 19.8 1017.8 -
08/10:00pm S 12 16 - - - - - - - 19.8 1017.9 -
08/09:30pm S 17 22 - - - - - - - 19.9 1017.7 -
08/09:00pm S 17 19 - - - - - - - 20.0 1017.5 -
08/08:30pm S 18 21 - - - - - - - 19.9 1017.6 -
08/08:00pm S 17 22 - - - - - - - 20.1 1017.4 -
08/07:30pm S 19 23 - - - - - - - 20.1 1017.1 -
08/07:00pm S 19 23 - - - - - - - 20.3 1016.8 -
08/06:30pm S 19 23 - - - - - - - 20.5 1016.3 -
08/06:00pm S 19 22 - - - - - - - 20.6 1015.8 -
08/05:30pm S 19 22 - - - - - - - 20.9 1015.6 -
08/05:00pm S 18 21 - - - - - - - 21.0 1015.4 -
08/04:30pm S 16 20 - - - - - - - 20.9 1015.2 -
08/04:00pm S 17 20 - - - - - - - 20.9 1015.0 -
08/03:30pm S 18 21 - - - - - - - 20.8 1014.7 -
08/03:00pm S 18 21 - - - - - - - 20.8 1014.5 -
08/02:30pm S 17 22 - - - - - - - 20.6 1014.7 -
08/02:00pm S 18 21 - - - - - - - 20.8 1014.8 -
08/01:30pm SSE 18 21 - - - - - - - 20.7 1015.0 -
08/01:00pm S 17 22 - - - - - - - 20.8 1015.4 -
08/12:30pm SSE 17 20 - - - - - - - 20.8 1015.7 -
08/12:00pm SSE 17 20 - - - - - - - 20.8 1016.0 -
08/11:30am S 18 21 - - - - - - - 20.8 1016.5 -
08/11:00am S 17 21 - - - - - - - 21.0 1017.2 -
08/10:30am SSE 17 21 - - - - - - - 21.0 1017.5 -
08/10:00am SSE 19 22 - - - - - - - 21.1 1017.7 -
08/09:30am S 17 22 - - - - - - - 21.1 1017.9 -
08/09:00am S 18 21 - - - - - - - 21.1 1017.9 -
08/08:30am S 19 24 - - - - - - - 21.2 1017.7 -
08/08:00am SSE 19 23 - - - - - - - 21.0 1017.3 -
08/07:30am S 19 22 - - - - - - - 21.1 1017.1 -
08/07:00am S 21 23 - - - - - - - 21.0 1016.9 -
08/06:30am SSE 19 22 - - - - - - - 21.0 1016.5 -
08/06:00am SSE 20 25 - - - - - - - 21.1 1016.1 -
08/05:30am SSE 21 24 - - - - - - - 21.0 1015.6 -
08/05:00am SSE 21 24 - - - - - - - 21.1 1015.2 -
08/04:30am S 21 24 - - - - - - - 21.2 1014.8 -
08/04:00am S 20 24 - - - - - - - 21.3 1014.8 -
08/03:30am SSE 21 25 - - - - - - - 21.3 1014.7 -
08/03:00am SSE 21 23 - - - - - - - 21.7 1014.7 -
08/02:30am SSE 20 23 - - - - - - - 21.5 1014.8 -
08/02:00am SSE 18 22 - - - - - - - 21.5 1014.9 -
08/01:30am SSE 20 24 - - - - - - - 21.6 1015.2 -
08/01:00am SSE 19 23 - - - - - - - 21.8 1015.4 -
08/12:30am SSE 18 21 - - - - - - - 21.9 1015.6 -

Other formats

Comma delimited format used in spreadsheet applications
http://www.bom.gov.au/fwo/IDQ60701/IDQ60701.94393.axf

JavaScript Object Notation format (JSON) in row-major order
http://www.bom.gov.au/fwo/IDQ60701/IDQ60701.94393.json

Data quality

Most of these data are generated automatically and are frequently updated. Quality checks on data are not normally performed. It is possible for incorrect values to appear. Refer to information at About Latest Weather Observations and please check the disclaimer before using these data.